Terminal Aerodrome Forecast
Issued by NWS Wilmington, OH

Home | Current Version | Previous Version | Text Only | Print | Product List | Glossary On
Versions: 1 2 3 4 5 6 7 8 9 10 11 12 13 14 15 16 17 18 19 20 21
000
FTUS41 KILN 240000 AAA
TAFCMH
TAF AMD
KCMH 240056Z 2401/2424 02012KT P6SM VCSH SCT015 OVC030
      TEMPO 2401/2403 OVC015
     FM240400 02008KT P6SM SCT025 BKN050
     FM240800 01007KT P6SM SKC
     FM241500 02009KT P6SM BKN035
     FM242300 03006KT P6SM SCT035=

USA.gov is the U.S. government's official web portal to all federal, state and local government web resources and services.